Time;durP1;ratioP1;P1;durP2;ratioP2;P2;SDS_P1;SDS_P2;PMS_P1;PMS_P2;Temp;Humidity;BMP_temperature;BMP_pressure;BME280_temperature;BME280_humidity;BME280_pressure;Samples;Min_cycle;Max_cycle;Signal;HPM_P1;HPM_P2
2022/04/22 00:02:21;;;;;;;5.43;4.00;;;;;;;;;;5009007;28;20210;-74
2022/04/22 00:04:46;;;;;;;5.33;4.53;;;;;;;;;;5000442;28;20219;-75
2022/04/22 00:07:12;;;;;;;5.60;5.07;;;;;;;;;;4999712;28;20317;-75
2022/04/22 00:09:37;;;;;;;5.60;5.00;;;;;;;;;;5002376;28;20216;-75
2022/04/22 00:12:03;;;;;;;5.47;4.97;;;;;;;;;;5001971;28;20210;-74
2022/04/22 00:14:28;;;;;;;4.53;4.07;;;;;;;;;;4999793;28;21076;-75
2022/04/22 00:16:53;;;;;;;5.33;4.83;;;;;;;;;;4994291;28;20245;-75
2022/04/22 00:19:19;;;;;;;5.93;4.77;;;;;;;;;;4996409;28;20229;-75
2022/04/22 00:21:47;;;;;;;4.47;4.00;;;;;;;;;;4995052;28;20219;-75
2022/04/22 00:24:12;;;;;;;4.82;4.30;;;;;;;;;;5001892;28;20211;-75
2022/04/22 00:26:37;;;;;;;8.70;6.30;;;;;;;;;;4996706;28;20485;-75
2022/04/22 00:29:03;;;;;;;5.93;5.33;;;;;;;;;;4997256;28;20199;-75
2022/04/22 00:31:28;;;;;;;6.07;5.57;;;;;;;;;;4996836;28;20450;-74
2022/04/22 00:33:54;;;;;;;5.83;5.33;;;;;;;;;;4994435;28;20309;-74
2022/04/22 00:36:19;;;;;;;7.03;4.73;;;;;;;;;;4988593;28;20259;-74
2022/04/22 00:38:44;;;;;;;5.80;5.30;;;;;;;;;;4993138;28;20215;-74
2022/04/22 00:41:10;;;;;;;8.87;5.30;;;;;;;9.59;nan;98087.66;5002008;28;20210;-74
2022/04/22 00:43:48;;;;;;;8.00;5.10;;;;;;;9.53;nan;98090.75;5002728;28;20215;-75
2022/04/22 00:46:13;;;;;;;7.22;4.75;;;;;;;9.49;nan;98086.75;4994184;28;20257;-74
2022/04/22 00:48:39;;;;;;;6.50;4.73;;;;;;;9.46;nan;98079.97;4995872;28;20297;-74
2022/04/22 00:51:09;;;;;;;6.07;4.80;;;;;;;9.39;nan;98084.06;4990849;28;20210;-75
2022/04/22 00:53:35;;;;;;;6.20;5.00;;;;;;;9.28;nan;98076.25;4999577;28;20223;-75
2022/04/22 00:56:06;;;;;;;5.45;4.95;;;;;;;9.17;nan;98078.94;4997305;28;20270;-76
2022/04/22 00:58:35;;;;;;;6.30;5.45;;;;;;;9.11;nan;98080.28;4991390;28;20208;-75
2022/04/22 01:01:01;;;;;;;5.47;4.93;;;;;;;9.08;nan;98075.28;4996033;28;20235;-75
2022/04/22 01:03:28;;;;;;;6.57;5.83;;;;;;;9.07;nan;98068.38;4999793;28;20528;-75
2022/04/22 01:11:23;;;;;;;6.75;6.13;;;;;;;8.89;nan;98060.25;4997769;28;20626;-75
2022/04/22 01:13:49;;;;;;;5.13;4.70;;;;;;;8.83;nan;98061.59;4997464;28;20231;-74
2022/04/22 01:16:14;;;;;;;6.33;5.63;;;;;;;8.79;nan;98052.31;4997635;28;20234;-74
2022/04/22 01:18:39;;;;;;;6.97;4.93;;;;;;;8.74;nan;98059.69;4999903;28;20219;-74
2022/04/22 01:21:05;;;;;;;6.43;5.83;;;;;;;8.71;nan;98048.66;4988861;28;20361;-75
2022/04/22 01:23:31;;;;;;;6.73;5.07;;;;;;;8.68;nan;98043.66;4996049;28;20210;-74
2022/04/22 01:25:57;;;;;;;6.10;5.30;;;;;;;8.66;nan;98042.94;4993463;28;20231;-75
2022/04/22 01:28:23;;;;;;;4.90;4.40;;;;;;;8.61;nan;98036.31;4992259;28;20219;-75
2022/04/22 01:31:02;;;;;;;5.68;5.18;;;;;;;8.61;nan;98038.94;4993742;28;20212;-75
2022/04/22 01:33:28;;;;;;;5.93;5.10;;;;;;;8.60;nan;98034.63;4991046;28;21267;-75
2022/04/22 01:35:53;;;;;;;5.50;5.00;;;;;;;8.62;nan;98027.50;4999487;28;20226;-74
2022/04/22 01:38:19;;;;;;;6.57;5.23;;;;;;;8.60;nan;98039.03;4997254;28;20223;-74
2022/04/22 01:40:44;;;;;;;7.27;6.57;;;;;;;8.52;nan;98031.81;4995937;28;20262;-75
2022/04/22 01:43:10;;;;;;;7.33;6.30;;;;;;;8.46;nan;98037.53;4994325;28;20557;-75
2022/04/22 01:45:35;;;;;;;7.43;6.70;;;;;;;8.43;nan;98042.19;4992594;28;20272;-76
2022/04/22 01:48:00;;;;;;;6.93;6.30;;;;;;;8.39;nan;98031.94;5001729;28;20560;-74
2022/04/22 01:50:26;;;;;;;6.90;6.20;;;;;;;8.39;nan;98041.59;4992553;28;20261;-74
2022/04/22 01:52:52;;;;;;;7.80;6.27;;;;;;;8.39;nan;98036.34;4994963;28;20212;-74
2022/04/22 01:55:18;;;;;;;7.37;6.47;;;;;;;8.37;nan;98033.00;4991022;28;20209;-74
2022/04/22 01:57:43;;;;;;;6.73;6.00;;;;;;;8.37;nan;98041.69;4993586;28;20526;-75
2022/04/22 02:00:10;;;;;;;8.33;6.27;;;;;;;8.37;nan;98038.22;4995599;28;20218;-74
2022/04/22 02:02:36;;;;;;;8.80;7.90;;;;;;;8.37;nan;98033.00;4990779;28;20551;-74
2022/04/22 02:05:05;;;;;;;7.00;6.23;;;;;;;8.34;nan;98035.84;4995182;28;20500;-74
2022/04/22 02:07:31;;;;;;;7.97;7.28;;;;;;;8.31;nan;98036.09;4987584;28;20587;-74
2022/04/22 02:09:57;;;;;;;7.50;5.77;;;;;;;8.27;nan;98032.91;4991883;28;20267;-74
2022/04/22 02:12:22;;;;;;;7.17;5.77;;;;;;;8.27;nan;98032.09;5000691;28;20473;-74
2022/04/22 02:14:48;;;;;;;6.83;5.90;;;;;;;8.26;nan;98030.41;5000459;28;20231;-74
2022/04/22 02:17:13;;;;;;;7.20;6.40;;;;;;;8.23;nan;98036.72;4986961;28;20773;-74
2022/04/22 02:19:40;;;;;;;7.50;5.57;;;;;;;8.20;nan;98036.94;4995347;28;20384;-74
2022/04/22 02:22:05;;;;;;;6.60;5.55;;;;;;;8.12;nan;98027.09;4978197;28;20477;-75
2022/04/22 02:24:31;;;;;;;8.27;6.43;;;;;;;8.02;nan;98028.78;4990552;28;20204;-74
2022/04/22 02:29:40;;;;;;;7.78;7.00;;;;;;;7.83;nan;98026.78;4995329;28;20200;-74
2022/04/22 02:32:06;;;;;;;7.50;6.83;;;;;;;7.78;nan;98031.53;4995693;28;20998;-74
2022/04/22 02:34:31;;;;;;;5.77;5.20;;;;;;;7.78;nan;98033.28;5007934;28;20583;-76
2022/04/22 02:36:57;;;;;;;6.23;5.63;;;;;;;7.79;nan;98027.13;5002555;28;20482;-73
2022/04/22 02:39:22;;;;;;;6.90;6.17;;;;;;;7.80;nan;98019.16;4998157;28;20369;-75
2022/04/22 02:47:15;;;;;;;7.97;6.10;;;;;;;7.84;nan;98014.53;5000694;28;20241;-76
2022/04/22 02:49:44;;;;;;;6.90;5.60;;;;;;;7.84;nan;98025.00;4986238;28;20207;-73
2022/04/22 02:52:11;;;;;;;5.75;5.25;;;;;;;7.81;nan;98015.59;5014343;28;20519;-74
2022/04/22 02:54:37;;;;;;;8.85;5.95;;;;;;;7.82;nan;98017.25;5018421;28;20269;-77
2022/04/22 02:57:03;;;;;;;4.93;4.43;;;;;;;7.82;nan;98021.66;5015702;28;20281;-73
2022/04/22 02:59:29;;;;;;;6.27;5.67;;;;;;;7.78;nan;98015.84;5019114;28;20587;-76
2022/04/22 03:01:55;;;;;;;5.60;5.10;;;;;;;7.73;nan;98010.97;5020908;28;20480;-73
2022/04/22 03:04:21;;;;;;;6.03;5.43;;;;;;;7.74;nan;98010.00;5013792;28;20374;-74
2022/04/22 03:06:47;;;;;;;7.23;5.33;;;;;;;7.73;nan;98012.75;5018148;28;20466;-73
2022/04/22 03:09:12;;;;;;;5.77;5.20;;;;;;;7.72;nan;98011.06;5016196;28;20215;-73
2022/04/22 03:11:38;;;;;;;6.73;5.90;;;;;;;7.69;nan;98008.69;5013401;28;20253;-76
2022/04/22 03:14:05;;;;;;;5.57;4.63;;;;;;;7.66;nan;98004.53;5014060;28;20285;-72
2022/04/22 03:16:31;;;;;;;5.40;4.90;;;;;;;7.64;nan;98003.84;5018827;28;20659;-75
2022/04/22 03:18:56;;;;;;;7.30;5.07;;;;;;;7.62;nan;98010.97;5020821;28;20651;-73
2022/04/22 03:21:24;;;;;;;7.80;5.20;;;;;;;7.60;nan;98004.19;5013584;28;20213;-73
2022/04/22 03:23:50;;;;;;;8.18;7.40;;;;;;;7.58;nan;98009.53;5020140;28;20817;-76
2022/04/22 03:26:16;;;;;;;6.67;4.97;;;;;;;7.56;nan;98005.38;4994659;28;20760;-73
2022/04/22 03:28:41;;;;;;;6.80;5.60;;;;;;;7.51;nan;97998.72;5017923;28;20464;-73
2022/04/22 03:31:07;;;;;;;8.73;5.17;;;;;;;7.49;nan;97997.19;5017060;28;20214;-73
2022/04/22 03:33:33;;;;;;;5.95;5.28;;;;;;;7.45;nan;98006.19;5021782;28;20241;-74
2022/04/22 03:35:59;;;;;;;4.90;4.50;;;;;;;7.40;nan;98003.09;5017266;28;20234;-76
2022/04/22 03:38:24;;;;;;;6.20;5.30;;;;;;;7.36;nan;98006.91;5015748;28;20438;-73
2022/04/22 03:40:52;;;;;;;5.47;4.97;;;;;;;7.30;nan;98009.03;5019042;28;20210;-75
2022/04/22 03:43:18;;;;;;;5.78;5.25;;;;;;;7.25;nan;98013.78;5021461;28;20297;-73
2022/04/22 03:45:44;;;;;;;7.35;5.57;;;;;;;7.18;nan;98011.72;5024907;28;20238;-73
2022/04/22 03:48:11;;;;;;;12.53;6.53;;;;;;;7.15;nan;98011.97;5022348;28;20222;-76
2022/04/22 03:50:38;;;;;;;5.22;4.72;;;;;;;7.11;nan;98015.78;5016370;28;20211;-73
2022/04/22 03:53:04;;;;;;;5.70;5.10;;;;;;;7.06;nan;98006.47;5002575;28;20234;-73
2022/04/22 03:55:30;;;;;;;6.13;5.35;;;;;;;7.02;nan;98012.91;5017232;28;20309;-73
2022/04/22 03:58:10;;;;;;;6.10;5.50;;;;;;;7.03;nan;98017.16;5013741;28;20481;-74
2022/04/22 04:00:48;;;;;;;6.70;5.70;;;;;;;7.02;nan;98015.50;5020258;28;20568;-74
2022/04/22 04:03:21;;;;;;;9.65;6.18;;;;;;;7.04;nan;98018.81;5012596;28;20471;-76
2022/04/22 04:05:52;;;;;;;6.97;6.20;;;;;;;7.02;nan;98023.34;5016590;28;20592;-75
2022/04/22 04:08:22;;;;;;;5.85;4.95;;;;;;;6.99;nan;98015.72;5016304;28;20349;-75
2022/04/22 04:16:16;;;;;;;7.22;4.97;;;;;;;6.97;nan;98015.03;5019489;28;20540;-76
2022/04/22 04:18:42;;;;;;;6.30;4.27;;;;;;;6.98;nan;98016.66;5022020;28;20214;-73
2022/04/22 04:23:54;;;;;;;7.20;4.35;;;;;;;6.95;nan;98023.91;4995223;28;20214;-76
2022/04/22 04:26:21;;;;;;;11.97;5.33;;;;;;;6.91;nan;98025.06;5018357;28;20225;-73
2022/04/22 04:28:47;;;;;;;5.80;5.20;;;;;;;6.90;nan;98026.03;4989073;28;20587;-73
2022/04/22 04:31:13;;;;;;;7.25;4.70;;;;;;;6.88;nan;98026.13;5021377;28;20210;-73
2022/04/22 04:33:40;;;;;;;7.32;5.25;;;;;;;6.87;nan;98027.06;5016417;28;20229;-73
2022/04/22 04:36:09;;;;;;;6.68;5.15;;;;;;;6.86;nan;98028.03;5019669;28;20428;-77
2022/04/22 04:38:39;;;;;;;5.82;5.03;;;;;;;6.87;nan;98025.28;5016135;28;20683;-73
2022/04/22 04:41:08;;;;;;;6.20;5.47;;;;;;;6.84;nan;98020.31;5012266;28;20659;-73
2022/04/22 04:43:40;;;;;;;6.43;5.82;;;;;;;6.81;nan;98025.75;5017762;28;20213;-73
2022/04/22 04:46:06;;;;;;;7.28;6.07;;;;;;;6.80;nan;98029.28;5020865;28;20360;-74
2022/04/22 04:48:33;;;;;;;7.47;4.97;;;;;;;6.79;nan;98032.84;5014677;28;20213;-76
2022/04/22 04:50:59;;;;;;;4.55;4.10;;;;;;;6.82;nan;98042.25;5018390;28;20202;-74
2022/04/22 04:53:24;;;;;;;13.97;5.80;;;;;;;6.84;nan;98033.34;5014503;28;20233;-74
2022/04/22 04:55:50;;;;;;;11.30;9.07;;;;;;;6.85;nan;98034.19;5020584;28;20250;-74
2022/04/22 04:58:17;;;;;;;6.75;5.30;;;;;;;6.88;nan;98028.72;5018559;28;20206;-75
2022/04/22 05:00:45;;;;;;;7.05;5.50;;;;;;;6.92;nan;98027.56;5015570;28;20209;-75
2022/04/22 05:03:11;;;;;;;9.13;6.43;;;;;;;6.97;nan;98029.84;5014627;28;20203;-75
2022/04/22 05:05:37;;;;;;;8.63;5.60;;;;;;;6.99;nan;98028.75;5018658;28;20203;-74
2022/04/22 05:08:02;;;;;;;7.37;5.67;;;;;;;;;;5015570;28;20230;-74
2022/04/22 05:10:30;;;;;;;6.57;5.60;;;;;;;7.61;nan;98030.19;5014440;28;20726;-74
2022/04/22 05:12:57;;;;;;;7.60;5.90;;;;;;;8.05;nan;98025.94;4999735;28;20264;-77
2022/04/22 05:15:23;;;;;;;8.15;5.30;;;;;;;8.45;nan;98021.94;5015207;28;20202;-75
2022/04/22 05:17:50;;;;;;;7.05;5.80;;;;;;;8.77;nan;98024.56;5007594;28;20206;-75
2022/04/22 05:20:18;;;;;;;6.55;5.53;;;;;;;9.10;nan;98021.00;5016377;28;20268;-77
2022/04/22 05:22:44;;;;;;;7.38;6.70;;;;;;;9.42;nan;98020.06;5021701;28;20256;-75
2022/04/22 05:25:11;;;;;;;7.95;6.80;;;;;;;9.65;nan;98013.72;5017786;28;20765;-74
2022/04/22 05:27:37;;;;;;;8.20;7.00;;;;;;;9.88;nan;98016.16;5016130;28;20265;-77
2022/04/22 05:32:48;;;;;;;11.70;7.60;;;;;;;10.23;nan;98018.34;5013432;28;20513;-75
2022/04/22 05:35:16;;;;;;;9.23;6.93;;;;;;;10.37;nan;98014.56;5010799;28;20488;-75
2022/04/22 05:38:00;;;;;;;9.48;6.80;;;;;;;10.48;nan;98013.59;4997279;28;20234;-74
2022/04/22 05:40:33;;;;;;;6.90;6.20;;;;;;;10.36;nan;98016.31;5016470;28;20734;-76
2022/04/22 05:42:59;;;;;;;8.80;6.80;;;;;;;10.35;nan;98024.34;5018111;28;20210;-76
2022/04/22 05:45:26;;;;;;;6.43;5.83;;;;;;;10.28;nan;98023.22;5016836;28;20211;-74
2022/04/22 05:47:52;;;;;;;9.30;7.05;;;;;;;10.16;nan;98025.09;5013886;28;20741;-75
2022/04/22 05:50:19;;;;;;;8.80;7.00;;;;;;;9.94;nan;98029.59;5010457;28;20219;-76
2022/04/22 05:52:45;;;;;;;11.48;8.40;;;;;;;9.70;nan;98029.88;5012711;28;20956;-73
2022/04/22 05:55:18;;;;;;;8.80;7.90;;;;;;;9.49;nan;98027.28;5017116;28;20235;-75
2022/04/22 05:57:45;;;;;;;9.27;6.75;;;;;;;9.31;nan;98024.41;5015956;28;20436;-73
2022/04/22 06:00:13;;;;;;;9.40;7.03;;;;;;;9.15;nan;98031.91;5019816;28;20785;-73
2022/04/22 06:02:43;;;;;;;13.00;9.88;;;;;;;9.09;nan;98030.63;5017572;28;20466;-73
2022/04/22 06:05:14;;;;;;;9.90;7.88;;;;;;;9.14;nan;98029.41;5016831;28;20201;-73
2022/04/22 06:07:41;;;;;;;10.77;8.35;;;;;;;9.28;nan;98029.09;5020462;28;20680;-74
2022/04/22 06:12:53;;;;;;;9.82;7.35;;;;;;;10.30;nan;98023.91;5018916;28;20250;-74
2022/04/22 06:15:19;;;;;;;10.63;8.50;;;;;;;10.69;nan;98024.78;5013348;28;20246;-76
2022/04/22 06:17:44;;;;;;;9.35;8.20;;;;;;;11.19;nan;98018.56;5021153;28;20715;-74
2022/04/22 06:20:11;;;;;;;9.93;7.60;;;;;;;11.63;nan;98022.34;5011545;28;20211;-75
2022/04/22 06:22:36;;;;;;;11.13;9.25;;;;;;;11.99;nan;98019.91;5006329;28;20195;-77
2022/04/22 06:25:02;;;;;;;9.40;7.17;;;;;;;12.43;nan;98019.25;5015514;28;20261;-75
2022/04/22 06:27:34;;;;;;;9.30;8.13;;;;;;;12.84;nan;98009.94;5020908;28;20224;-77
2022/04/22 06:30:10;;;;;;;10.23;8.38;;;;;;;13.15;nan;98007.72;5008016;28;20971;-77
2022/04/22 06:32:36;;;;;;;9.77;8.55;;;;;;;13.42;nan;98008.59;5003983;28;20467;-74
2022/04/22 06:35:04;;;;;;;9.45;8.48;;;;;;;13.62;nan;98010.03;5022094;28;20303;-74
2022/04/22 06:37:51;;;;;;;9.25;7.30;;;;;;;13.90;nan;98010.69;4989018;28;20313;-74
2022/04/22 06:45:48;;;;;;;8.85;7.90;;;;;;;14.48;nan;98002.97;5010532;28;20557;-74
2022/04/22 06:48:26;;;;;;;11.43;7.82;;;;;;;14.57;nan;98004.66;5019742;28;21305;-75
2022/04/22 06:50:52;;;;;;;11.75;8.90;;;;;;;14.61;nan;98008.66;5023869;28;20209;-74
2022/04/22 06:53:19;;;;;;;10.55;9.45;;;;;;;14.69;nan;98000.75;5023028;28;20222;-74
2022/04/22 06:55:47;;;;;;;10.13;9.00;;;;;;;14.53;nan;98004.19;4984017;28;20251;-78
2022/04/22 06:58:15;;;;;;;9.52;8.05;;;;;;;14.06;nan;98011.75;5013876;28;20222;-75
2022/04/22 07:00:41;;;;;;;9.45;8.55;;;;;;;13.58;nan;97999.94;5016638;28;20305;-74
2022/04/22 07:03:07;;;;;;;13.10;7.80;;;;;;;13.10;nan;97999.44;5016417;28;20264;-77
2022/04/22 07:05:34;;;;;;;10.13;9.13;;;;;;;12.77;nan;98003.59;5004112;28;20703;-74
2022/04/22 07:08:06;;;;;;;10.43;7.85;;;;;;;12.55;nan;98002.25;5018322;28;20209;-74
2022/04/22 07:10:33;;;;;;;14.55;8.40;;;;;;;12.48;nan;98006.47;5014869;28;20198;-77
2022/04/22 07:12:59;;;;;;;12.30;8.93;;;;;;;12.67;nan;98003.69;5003769;28;20207;-74
2022/04/22 07:15:25;;;;;;;11.40;8.77;;;;;;;13.10;nan;97993.34;5003615;28;20226;-75
2022/04/22 07:17:52;;;;;;;10.93;8.95;;;;;;;13.70;nan;98002.19;5020180;28;20226;-78
2022/04/22 07:20:18;;;;;;;8.90;8.00;;;;;;;14.09;nan;97993.75;5027070;28;20244;-74
2022/04/22 07:22:43;;;;;;;9.87;8.87;;;;;;;14.46;nan;97997.03;5012920;28;20219;-75
2022/04/22 07:25:10;;;;;;;12.00;8.97;;;;;;;14.89;nan;97998.59;5022032;28;20477;-76
2022/04/22 07:27:40;;;;;;;11.20;8.77;;;;;;;15.26;nan;97990.16;5009875;28;20222;-75
2022/04/22 07:30:11;;;;;;;9.45;8.55;;;;;;;15.59;nan;97992.75;5023998;28;20204;-76
2022/04/22 07:32:37;;;;;;;11.40;10.23;;;;;;;15.88;nan;97989.56;5022184;28;20310;-77
2022/04/22 07:35:05;;;;;;;12.68;10.18;;;;;;;16.07;nan;97990.97;5024321;28;20315;-75
2022/04/22 07:37:31;;;;;;;10.75;9.35;;;;;;;16.37;nan;97992.00;5006583;28;20238;-74
2022/04/22 07:39:56;;;;;;;14.67;8.83;;;;;;;16.57;nan;97986.22;5011278;28;20224;-75
2022/04/22 07:42:22;;;;;;;11.90;10.00;;;;;;;16.78;nan;97988.28;5016537;28;20454;-75
2022/04/22 07:47:34;;;;;;;10.07;8.80;;;;;;;16.96;nan;97978.22;5016396;28;20234;-75
2022/04/22 07:50:05;;;;;;;10.93;9.83;;;;;;;17.03;nan;97980.97;4999776;28;20541;-75
2022/04/22 07:52:38;;;;;;;11.27;9.30;;;;;;;17.17;nan;97971.38;4995746;28;20470;-75
2022/04/22 07:55:04;;;;;;;10.17;8.37;;;;;;;17.22;nan;97974.31;5020328;28;20495;-75
2022/04/22 07:57:30;;;;;;;12.70;9.47;;;;;;;17.19;nan;97964.06;5039456;23;21057;-74
2022/04/22 07:59:56;;;;;;;12.23;9.70;;;;;;;17.43;nan;97971.81;5036415;28;20461;-75
2022/04/22 08:02:21;;;;;;;10.20;9.17;;;;;;;17.64;nan;97972.94;5034777;28;20536;-74
2022/04/22 08:04:47;;;;;;;15.03;9.90;;;;;;;17.86;nan;97966.72;5033698;28;20210;-74
2022/04/22 08:07:12;;;;;;;11.60;10.40;;;;;;;18.12;nan;97962.75;5037245;28;20229;-74
2022/04/22 08:09:38;;;;;;;12.57;10.97;;;;;;;18.19;nan;97966.31;5046213;28;20297;-75
2022/04/22 08:12:05;;;;;;;11.40;10.30;;;;;;;18.30;nan;97959.69;5038834;28;20631;-74
2022/04/22 08:14:32;;;;;;;12.77;9.97;;;;;;;18.45;nan;97955.16;5043511;28;20272;-74
2022/04/22 08:16:59;;;;;;;14.73;9.53;;;;;;;18.80;nan;97960.66;5042781;28;20487;-74
2022/04/22 08:19:24;;;;;;;11.20;9.20;;;;;;;19.17;nan;97958.69;5039323;28;20457;-75
2022/04/22 08:21:50;;;;;;;10.50;8.70;;;;;;;19.32;nan;97953.28;5036004;28;20967;-75
2022/04/22 08:24:15;;;;;;;11.70;9.33;;;;;;;19.27;nan;97948.53;5037079;28;20635;-74
2022/04/22 08:26:41;;;;;;;10.23;9.13;;;;;;;19.21;nan;97944.00;5036786;28;20280;-73
2022/04/22 08:29:06;;;;;;;11.70;10.30;;;;;;;19.27;nan;97950.38;5033275;28;20206;-74
2022/04/22 08:31:32;;;;;;;10.97;9.90;;;;;;;19.40;nan;97942.50;5028574;28;20734;-74
2022/04/22 08:33:57;;;;;;;10.57;8.97;;;;;;;19.44;nan;97943.75;5030552;28;20223;-74
2022/04/22 08:36:24;;;;;;;10.80;9.60;;;;;;;19.40;nan;97927.34;5034781;28;20193;-75
2022/04/22 08:38:49;;;;;;;9.43;8.43;;;;;;;19.26;nan;97940.78;5032116;28;20288;-74
2022/04/22 08:41:17;;;;;;;11.83;9.10;;;;;;;18.91;nan;97933.53;5032667;28;20532;-74
2022/04/22 08:43:43;;;;;;;12.10;9.67;;;;;;;18.82;nan;97931.19;5033743;28;20245;-74
2022/04/22 08:49:58;;;;;;;12.37;8.40;;;;;;;18.82;nan;97933.84;5024131;28;20469;-74
2022/04/22 08:51:43;;;;;;;10.57;8.90;;;;;;;18.69;nan;97929.22;5033424;28;20475;-74
2022/04/22 08:54:10;;;;;;;10.20;9.20;;;;;;;18.74;nan;97926.78;5033016;28;20497;-74
2022/04/22 08:56:36;;;;;;;12.73;8.23;;;;;;;18.62;nan;97921.16;5031405;28;20468;-74
2022/04/22 08:59:02;;;;;;;10.20;8.33;;;;;;;18.50;nan;97915.53;5026522;28;20444;-74
2022/04/22 09:01:27;;;;;;;12.80;9.30;;;;;;;18.37;nan;97925.22;5018316;28;20498;-74
2022/04/22 09:03:53;;;;;;;11.43;8.90;;;;;;;18.31;nan;97913.50;5023527;28;20224;-74
2022/04/22 09:06:25;;;;;;;9.77;8.83;;;;;;;18.41;nan;97907.88;5006998;28;20220;-74
2022/04/22 09:08:51;;;;;;;13.13;10.47;;;;;;;18.48;nan;97908.75;5024158;28;20506;-74
2022/04/22 09:11:17;;;;;;;11.03;9.83;;;;;;;18.52;nan;97900.22;5010697;28;20938;-74
2022/04/22 09:13:43;;;;;;;13.77;9.67;;;;;;;18.57;nan;97900.44;5010472;28;20467;-74
2022/04/22 09:16:18;;;;;;;11.67;9.23;;;;;;;18.70;nan;97899.75;5016052;28;20180;-74
2022/04/22 09:18:45;;;;;;;12.20;9.57;;;;;;;18.82;nan;97894.75;5022132;28;20188;-74
2022/04/22 09:21:18;;;;;;;10.87;8.93;;;;;;;18.76;nan;97899.00;5024356;28;20510;-74
2022/04/22 09:23:48;;;;;;;10.77;9.10;;;;;;;18.66;nan;97897.66;5017339;28;20445;-74
2022/04/22 09:26:24;;;;;;;11.77;9.27;;;;;;;18.75;nan;97891.25;5019430;28;20913;-74
2022/04/22 09:28:57;;;;;;;11.50;9.27;;;;;;;18.69;nan;97895.47;5015954;28;20454;-74
2022/04/22 09:31:24;;;;;;;11.67;10.57;;;;;;;18.61;nan;97892.94;5009783;28;20990;-74
2022/04/22 09:33:50;;;;;;;14.50;10.63;;;;;;;18.55;nan;97891.88;5015384;28;20643;-74
2022/04/22 09:45:00;;;;;;;10.57;9.53;;;;;;;18.70;nan;97880.31;5012802;28;21011;-74
2022/04/22 09:47:29;;;;;;;12.93;11.27;;;;;;;18.60;nan;97882.47;5018181;28;20832;-74
2022/04/22 09:49:56;;;;;;;12.63;11.33;;;;;;;18.62;nan;97875.97;5016347;28;20840;-74
2022/04/22 09:52:30;;;;;;;14.03;9.70;;;;;;;18.57;nan;97873.03;5012795;28;20465;-74
2022/04/22 09:55:03;;;;;;;11.20;10.10;;;;;;;18.54;nan;97870.78;5013704;28;20493;-74
2022/04/22 09:57:29;;;;;;;12.13;10.93;;;;;;;18.63;nan;97872.28;5011675;28;20486;-74
2022/04/22 09:59:55;;;;;;;12.73;11.37;;;;;;;18.56;nan;97866.09;5013112;28;21004;-74
2022/04/22 10:02:24;;;;;;;12.25;11.00;;;;;;;18.52;nan;97872.78;5012343;28;20475;-73
2022/04/22 10:04:52;;;;;;;13.43;11.77;;;;;;;18.57;nan;97865.06;5013508;28;20207;-74
2022/04/22 10:07:18;;;;;;;12.20;10.07;;;;;;;18.55;nan;97875.91;5010994;28;20564;-74
2022/04/22 10:09:49;;;;;;;14.03;10.80;;;;;;;18.50;nan;97862.38;5012071;28;20833;-74
2022/04/22 10:12:18;;;;;;;13.83;10.80;;;;;;;18.48;nan;97864.38;5011532;28;20465;-74
2022/04/22 10:14:46;;;;;;;14.47;12.67;;;;;;;18.53;nan;97861.16;5011969;28;20864;-74
2022/04/22 10:17:12;;;;;;;12.53;11.10;;;;;;;18.28;nan;97858.88;5015038;28;21001;-74
2022/04/22 10:19:38;;;;;;;12.37;10.37;;;;;;;18.18;nan;97863.69;5013392;28;20833;-74
2022/04/22 10:22:07;;;;;;;13.57;10.23;;;;;;;18.12;nan;97853.81;5010361;28;20494;-74
2022/04/22 10:24:32;;;;;;;14.73;10.87;;;;;;;18.22;nan;97851.66;5013648;28;20454;-74
2022/04/22 10:27:00;;;;;;;12.03;10.87;;;;;;;18.32;nan;97849.50;4997509;28;20481;-74
2022/04/22 10:29:29;;;;;;;13.40;9.80;;;;;;;18.51;nan;97845.38;5014306;28;20563;-74
2022/04/22 10:31:54;;;;;;;16.33;11.83;;;;;;;18.60;nan;97855.88;5010413;28;20523;-74
2022/04/22 10:34:20;;;;;;;14.33;10.50;;;;;;;18.56;nan;97844.81;5013628;28;20979;-75
2022/04/22 10:36:46;;;;;;;15.40;11.30;;;;;;;18.61;nan;97842.41;5012326;28;20337;-74
2022/04/22 10:39:31;;;;;;;14.43;10.70;;;;;;;18.71;nan;97840.25;5014628;28;20254;-74
2022/04/22 10:41:57;;;;;;;12.00;10.83;;;;;;;18.86;nan;97845.50;5012406;28;20460;-74
2022/04/22 10:47:15;;;;;;;14.47;11.90;;;;;;;18.91;nan;97839.59;5007592;28;20261;-73
2022/04/22 10:49:43;;;;;;;13.67;11.00;;;;;;;18.96;nan;97831.88;5006327;28;20461;-73
2022/04/22 10:52:13;;;;;;;12.53;11.27;;;;;;;19.08;nan;97824.16;5007384;28;20636;-73
2022/04/22 10:54:54;;;;;;;12.57;11.20;;;;;;;19.18;nan;97832.59;5011544;28;20996;-72
2022/04/22 10:57:25;;;;;;;14.40;12.63;;;;;;;19.24;nan;97829.16;5013169;28;20480;-72
2022/04/22 11:00:12;;;;;;;13.60;11.70;;;;;;;19.10;nan;97824.78;5013091;28;21077;-74
2022/04/22 11:02:42;;;;;;;13.67;10.60;;;;;;;18.94;nan;97824.06;5014776;28;20466;-74
2022/04/22 11:05:19;;;;;;;14.80;10.70;;;;;;;18.66;nan;97823.19;5015546;28;20518;-73
2022/04/22 11:07:50;;;;;;;12.97;10.47;;;;;;;18.46;nan;97815.06;5013199;28;20996;-72
2022/04/22 11:10:27;;;;;;;12.60;11.30;;;;;;;18.44;nan;97814.44;5010896;28;20463;-74
2022/04/22 11:13:02;;;;;;;12.80;11.00;;;;;;;18.50;nan;97811.84;5010854;28;20464;-75
2022/04/22 11:15:42;;;;;;;13.47;12.07;;;;;;;18.61;nan;97807.84;5014821;28;20456;-74
2022/04/22 11:18:12;;;;;;;13.30;11.70;;;;;;;18.57;nan;97810.03;5015745;28;20503;-74
2022/04/22 11:20:42;;;;;;;13.20;11.03;;;;;;;18.52;nan;97816.97;5013082;28;20565;-74
2022/04/22 11:23:12;;;;;;;16.00;12.07;;;;;;;18.47;nan;97804.25;5013506;28;20872;-74
2022/04/22 11:25:38;;;;;;;13.90;11.43;;;;;;;18.53;nan;97807.97;5010013;28;20450;-74
2022/04/22 11:28:04;;;;;;;12.23;9.70;;;;;;;18.60;nan;97808.03;5011797;28;20464;-76
2022/04/22 11:30:32;;;;;;;13.33;11.40;;;;;;;18.67;nan;97806.25;4985067;28;20465;-73
2022/04/22 11:33:21;;;;;;;13.40;11.73;;;;;;;18.65;nan;97805.59;5015263;28;20457;-74
2022/04/22 11:35:58;;;;;;;12.33;11.10;;;;;;;18.62;nan;97798.84;4996582;28;20823;-74
2022/04/22 11:38:24;;;;;;;12.87;11.57;;;;;;;18.63;nan;97803.13;5012278;28;21442;-74
2022/04/22 11:40:50;;;;;;;16.63;12.47;;;;;;;18.58;nan;97809.06;5008968;28;20489;-74
2022/04/22 11:43:21;;;;;;;16.50;12.37;;;;;;;18.59;nan;97799.22;5012876;28;20841;-74
2022/04/22 11:45:48;;;;;;;13.87;12.37;;;;;;;18.63;nan;97803.13;5013246;28;20708;-74
2022/04/22 11:48:22;;;;;;;13.73;12.27;;;;;;;18.66;nan;97797.44;5011078;28;20481;-74
2022/04/22 11:50:49;;;;;;;13.90;11.67;;;;;;;18.69;nan;97796.25;5009551;28;20976;-74
2022/04/22 11:53:15;;;;;;;12.90;10.47;;;;;;;18.72;nan;97793.19;5014531;28;21019;-73
2022/04/22 11:55:44;;;;;;;13.97;12.47;;;;;;;18.71;nan;97795.03;5012719;28;20550;-74
2022/04/22 11:58:12;;;;;;;11.77;10.50;;;;;;;18.76;nan;97786.50;5014219;28;20509;-74
2022/04/22 12:06:14;;;;;;;15.60;11.80;;;;;;;18.67;nan;97791.09;5008004;28;21306;-74
2022/04/22 12:08:57;;;;;;;12.27;10.97;;;;;;;18.63;nan;97797.81;5010432;28;20969;-74
2022/04/22 12:11:24;;;;;;;14.03;10.57;;;;;;;18.59;nan;97799.22;5011250;28;20465;-73
2022/04/22 12:13:51;;;;;;;18.10;13.33;;;;;;;18.57;nan;97799.41;5013872;28;20847;-73
2022/04/22 12:16:19;;;;;;;16.07;11.67;;;;;;;18.57;nan;97795.94;5013064;28;20477;-74
2022/04/22 12:18:49;;;;;;;13.70;11.70;;;;;;;18.66;nan;97796.59;5010285;28;20670;-73
2022/04/22 12:21:16;;;;;;;21.03;12.43;;;;;;;18.72;nan;97795.84;5009883;28;20458;-74
2022/04/22 12:23:44;;;;;;;14.77;11.73;;;;;;;18.74;nan;97807.09;5012279;28;20606;-73
2022/04/22 12:26:26;;;;;;;11.30;8.37;;;;;;;18.69;nan;97799.72;5008169;28;20549;-73
2022/04/22 12:29:12;;;;;;;13.60;12.20;;;;;;;18.67;nan;97795.59;5013638;28;20946;-73
2022/04/22 12:31:40;;;;;;;14.17;12.23;;;;;;;18.63;nan;97794.34;5014526;28;20446;-73
2022/04/22 12:34:08;;;;;;;12.00;10.67;;;;;;;18.69;nan;97796.25;5015922;28;20487;-74
2022/04/22 12:36:36;;;;;;;14.60;11.83;;;;;;;18.77;nan;97788.97;5007385;28;20842;-74
2022/04/22 12:39:04;;;;;;;16.47;11.80;;;;;;;18.90;nan;97798.03;5014684;28;20550;-74
2022/04/22 12:41:33;;;;;;;14.20;11.40;;;;;;;19.01;nan;97798.31;5013228;28;20461;-73
2022/04/22 12:43:58;;;;;;;16.63;13.23;;;;;;;19.02;nan;97799.16;5001967;28;20851;-74
2022/04/22 12:52:19;;;;;;;14.67;12.47;;;;;;;18.94;nan;97788.66;5011009;28;20510;-74
2022/04/22 12:54:48;;;;;;;14.40;11.47;;;;;;;18.91;nan;97789.06;5011918;28;20482;-74
2022/04/22 12:57:16;;;;;;;13.27;11.73;;;;;;;18.91;nan;97789.88;5015690;28;20760;-74
2022/04/22 12:59:43;;;;;;;15.00;12.40;;;;;;;18.87;nan;97787.78;5013018;28;20594;-74
2022/04/22 13:02:10;;;;;;;14.90;12.60;;;;;;;18.89;nan;97793.75;5008712;28;20449;-74